Time;durP1;ratioP1;P1;durP2;ratioP2;P2;SDS_P1;SDS_P2;PMS_P1;PMS_P2;Temp;Humidity;BMP_temperature;BMP_pressure;BME280_temperature;BME280_humidity;BME280_pressure;Samples;Min_cycle;Max_cycle;Signal;HPM_P1;HPM_P2
2022/04/30 00:00:48;;;;;;;3.75;1.27;;;19.10;43.40;18.20;102423.00;;;;5019636;28;20042;-71
2022/04/30 00:03:34;;;;;;;1.50;1.00;;;19.00;42.70;18.20;102423.00;;;;5020008;28;20052;-70
2022/04/30 00:06:20;;;;;;;1.88;1.02;;;19.00;42.70;18.20;102414.00;;;;5022404;28;20125;-71
2022/04/30 00:09:06;;;;;;;1.42;0.93;;;19.00;42.70;18.20;102412.00;;;;5038329;28;20041;-71
2022/04/30 00:11:53;;;;;;;1.20;1.00;;;19.00;42.70;18.20;102410.00;;;;5034717;28;20041;-71
2022/04/30 00:14:39;;;;;;;2.33;1.42;;;19.00;42.70;18.20;102414.00;;;;5033061;28;20029;-71
2022/04/30 00:17:25;;;;;;;2.00;1.00;;;19.00;42.70;18.20;102407.00;;;;5021394;28;20516;-71
2022/04/30 00:20:12;;;;;;;3.55;1.33;;;18.90;42.60;18.20;102404.00;;;;5032607;28;20043;-70
2022/04/30 00:22:58;;;;;;;2.35;1.17;;;19.00;42.70;18.20;102407.00;;;;5034625;28;20060;-71
2022/04/30 00:25:44;;;;;;;1.33;1.00;;;19.00;42.80;18.20;102406.00;;;;5020087;28;20486;-71
2022/04/30 00:28:30;;;;;;;2.60;1.30;;;18.90;42.70;18.20;102408.00;;;;5034035;28;20041;-71
2022/04/30 00:31:17;;;;;;;1.52;1.30;;;19.10;42.80;18.20;102400.00;;;;5008524;28;20592;-71
2022/04/30 00:34:03;;;;;;;1.23;1.00;;;18.90;42.80;18.10;102407.00;;;;5041036;28;20033;-71
2022/04/30 00:36:49;;;;;;;1.13;1.05;;;19.00;42.90;18.20;102406.00;;;;5038110;28;20034;-71
2022/04/30 00:39:35;;;;;;;2.25;0.90;;;19.00;42.80;18.10;102403.00;;;;5020144;28;20041;-71
2022/04/30 00:42:21;;;;;;;1.50;1.33;;;18.90;42.70;18.10;102395.00;;;;5041813;28;20053;-71
2022/04/30 00:45:08;;;;;;;1.58;1.00;;;18.90;42.80;18.10;102401.00;;;;5038242;28;20041;-71
2022/04/30 00:47:55;;;;;;;3.00;1.10;;;18.90;42.80;18.10;102398.00;;;;5040875;28;20041;-70
2022/04/30 00:50:41;;;;;;;1.13;0.85;;;19.00;42.90;18.10;102390.00;;;;5038133;28;20055;-71
2022/04/30 00:53:27;;;;;;;1.55;1.10;;;18.90;42.80;18.10;102396.00;;;;5011735;28;20664;-71
2022/04/30 00:56:14;;;;;;;3.03;0.98;;;18.90;42.80;18.10;102386.00;;;;5016854;28;20490;-71
2022/04/30 00:59:05;;;;;;;1.10;0.97;;;18.90;42.80;18.10;102381.00;;;;5042066;28;20060;-71
2022/04/30 01:01:51;;;;;;;1.60;1.13;;;18.90;42.80;18.10;102386.00;;;;5010722;28;20455;-71
2022/04/30 01:04:37;;;;;;;1.90;0.88;;;18.90;42.80;18.10;102390.00;;;;5025983;28;20101;-71
2022/04/30 01:07:24;;;;;;;2.95;1.20;;;18.90;42.80;18.10;102387.00;;;;5043304;28;20037;-70
2022/04/30 01:10:10;;;;;;;1.63;1.27;;;18.90;42.90;18.10;102393.00;;;;5025926;28;20056;-71
2022/04/30 01:12:56;;;;;;;1.90;1.10;;;18.90;42.90;18.10;102385.00;;;;5041758;28;20044;-70
2022/04/30 01:15:43;;;;;;;3.13;1.55;;;18.90;42.80;18.10;102389.00;;;;5041210;28;20493;-71
2022/04/30 01:18:29;;;;;;;1.65;1.20;;;18.90;42.80;18.10;102387.00;;;;5026940;28;20041;-71
2022/04/30 01:21:16;;;;;;;1.33;1.13;;;18.90;42.90;18.10;102383.00;;;;5040746;28;20034;-71
2022/04/30 01:24:02;;;;;;;2.00;1.17;;;18.90;42.90;18.10;102387.00;;;;5018999;28;20033;-70
2022/04/30 01:26:51;;;;;;;1.38;1.02;;;18.90;42.90;18.10;102378.00;;;;4999729;28;20061;-71
2022/04/30 01:29:38;;;;;;;1.20;0.98;;;18.90;42.90;18.00;102376.00;;;;5026661;28;20117;-71
2022/04/30 01:38:40;;;;;;;1.83;1.05;;;18.90;42.90;18.00;102377.00;;;;5039356;28;20360;-71
2022/04/30 01:41:26;;;;;;;1.15;1.05;;;18.80;42.90;18.00;102375.00;;;;5038128;28;20039;-71
2022/04/30 01:44:12;;;;;;;1.15;0.98;;;18.80;42.90;18.00;102370.00;;;;5039052;28;20037;-71
2022/04/30 01:46:58;;;;;;;2.08;1.30;;;18.80;43.00;18.00;102371.00;;;;5019114;28;20395;-70
2022/04/30 01:49:44;;;;;;;1.20;1.10;;;18.80;43.00;18.00;102369.00;;;;5037138;28;20049;-71
2022/04/30 01:52:31;;;;;;;2.42;1.15;;;18.80;43.00;18.00;102367.00;;;;5034705;28;20045;-71
2022/04/30 01:55:17;;;;;;;1.17;1.08;;;18.80;43.10;18.00;102363.00;;;;5023977;28;20043;-70
2022/04/30 01:58:03;;;;;;;3.15;1.20;;;18.70;43.00;18.00;102362.00;;;;5024518;28;20128;-71
2022/04/30 02:00:49;;;;;;;3.17;1.25;;;18.80;43.10;18.00;102366.00;;;;5035655;28;20160;-70
2022/04/30 02:03:35;;;;;;;1.98;1.40;;;18.80;43.00;18.00;102357.00;;;;5040743;28;20033;-70
2022/04/30 02:06:22;;;;;;;2.35;1.35;;;18.80;43.00;17.90;102366.00;;;;5024540;28;20037;-70
2022/04/30 02:09:08;;;;;;;2.25;1.10;;;18.70;43.00;17.90;102364.00;;;;5035365;28;20501;-71
2022/04/30 02:11:57;;;;;;;1.67;1.10;;;18.80;43.10;17.90;102359.00;;;;5036931;28;20048;-71
2022/04/30 02:14:48;;;;;;;2.08;1.20;;;18.80;43.10;17.90;102358.00;;;;5010879;28;20422;-70
2022/04/30 02:17:36;;;;;;;1.30;1.20;;;18.80;43.20;17.90;102350.00;;;;5021601;28;20036;-71
2022/04/30 02:20:24;;;;;;;2.38;1.10;;;18.80;43.10;17.90;102348.00;;;;5024056;28;20033;-71
2022/04/30 02:23:11;;;;;;;2.00;1.33;;;18.80;43.20;17.90;102354.00;;;;5027604;28;20514;-71
2022/04/30 02:26:03;;;;;;;2.53;1.27;;;18.70;43.10;17.90;102351.00;;;;5024884;28;20041;-71
2022/04/30 02:28:50;;;;;;;2.58;1.50;;;18.70;43.20;17.90;102350.00;;;;5023372;28;20037;-71
2022/04/30 02:31:36;;;;;;;3.75;1.30;;;18.70;43.20;17.90;102350.00;;;;5043932;28;20387;-71
2022/04/30 02:34:22;;;;;;;1.45;1.05;;;18.70;43.20;17.90;102348.00;;;;5046304;28;20040;-71
2022/04/30 02:37:13;;;;;;;1.70;1.40;;;18.70;43.20;17.90;102345.00;;;;5036863;28;20543;-71
2022/04/30 02:39:59;;;;;;;1.98;1.80;;;18.70;43.20;17.90;102335.00;;;;5029467;28;20603;-70
2022/04/30 02:42:46;;;;;;;1.77;1.15;;;18.70;43.20;17.80;102334.00;;;;5032246;28;20033;-70
2022/04/30 02:45:32;;;;;;;3.45;1.33;;;18.70;43.20;17.80;102335.00;;;;5039109;28;20567;-71
2022/04/30 02:48:18;;;;;;;2.92;1.40;;;18.60;43.20;17.80;102336.00;;;;5038913;28;20048;-71
2022/04/30 02:51:04;;;;;;;2.22;1.17;;;18.70;43.30;17.80;102333.00;;;;5039666;28;20044;-70
2022/04/30 02:53:53;;;;;;;2.90;1.25;;;18.60;43.20;17.80;102329.00;;;;5044160;28;20509;-71
2022/04/30 02:56:40;;;;;;;1.38;1.20;;;18.60;43.20;17.80;102332.00;;;;5037152;28;20045;-70
2022/04/30 03:02:30;;;;;;;2.88;1.38;;;18.50;43.20;17.80;102333.00;;;;5039245;28;20110;-71
2022/04/30 03:05:17;;;;;;;2.70;1.42;;;18.60;43.20;17.80;102330.00;;;;5042312;28;20068;-70
2022/04/30 03:08:07;;;;;;;2.33;1.30;;;18.60;43.20;17.80;102321.00;;;;5041949;28;20037;-71
2022/04/30 03:10:56;;;;;;;2.60;1.48;;;18.60;43.30;17.70;102316.00;;;;5020887;28;20083;-70
2022/04/30 03:13:42;;;;;;;2.10;1.17;;;18.60;43.30;17.70;102317.00;;;;5042278;28;20049;-70
2022/04/30 03:22:38;;;;;;;1.60;1.20;;;18.50;43.20;17.70;102317.00;;;;5029083;28;20059;-70
2022/04/30 03:25:24;;;;;;;2.15;1.48;;;18.50;43.20;17.70;102318.00;;;;5033666;28;20079;-70
2022/04/30 03:28:11;;;;;;;1.60;1.42;;;18.50;43.30;17.70;102311.00;;;;5041625;28;20045;-71
2022/04/30 03:30:57;;;;;;;2.95;1.20;;;18.50;43.30;17.70;102310.00;;;;5036208;28;20045;-71
2022/04/30 03:33:44;;;;;;;1.95;1.35;;;18.50;43.30;17.70;102298.00;;;;5038460;28;20033;-70
2022/04/30 03:36:30;;;;;;;2.42;1.23;;;18.50;43.20;17.70;102301.00;;;;5023539;28;20039;-71
2022/04/30 03:39:16;;;;;;;2.33;1.38;;;18.50;43.20;17.70;102298.00;;;;5039221;28;20513;-71
2022/04/30 03:42:03;;;;;;;2.30;1.40;;;18.40;43.20;17.70;102297.00;;;;5038962;28;20593;-71
2022/04/30 03:44:49;;;;;;;2.53;1.30;;;18.50;43.20;17.70;102287.00;;;;5030886;28;20470;-71
2022/04/30 03:47:37;;;;;;;2.65;1.45;;;18.40;43.20;17.60;102281.00;;;;5026283;28;20481;-71
2022/04/30 03:50:23;;;;;;;;;;;18.40;43.20;17.60;102282.00;;;;5038602;28;20044;-70
2022/04/30 03:53:09;;;;;;;3.08;1.67;;;18.40;43.20;17.60;102280.00;;;;5034386;28;19948;-70
2022/04/30 03:55:56;;;;;;;2.25;1.23;;;18.50;43.20;17.60;102289.00;;;;5024704;28;20087;-71
2022/04/30 03:58:44;;;;;;;2.40;1.13;;;18.50;43.10;17.60;102287.00;;;;5035534;28;20226;-71
2022/04/30 04:01:30;;;;;;;1.95;1.17;;;18.40;43.20;17.60;102293.00;;;;5035035;28;20481;-71
2022/04/30 04:04:16;;;;;;;2.08;1.45;;;18.40;43.10;17.60;102290.00;;;;5022551;28;20120;-70
2022/04/30 04:07:02;;;;;;;1.45;1.30;;;18.30;43.10;17.60;102295.00;;;;5023728;28;20038;-70
2022/04/30 04:09:48;;;;;;;3.15;1.73;;;18.40;43.50;17.60;102290.00;;;;5036588;28;20116;-71
2022/04/30 04:12:35;;;;;;;2.70;1.30;;;18.40;43.20;17.60;102293.00;;;;5036690;28;20037;-70
2022/04/30 04:18:25;;;;;;;2.60;1.35;;;18.40;43.10;17.60;102300.00;;;;5033660;28;20082;-70
2022/04/30 04:21:11;;;;;;;1.60;1.50;;;18.30;43.10;17.60;102294.00;;;;5020670;28;20041;-70
2022/04/30 04:27:02;;;;;;;1.67;1.35;;;18.40;43.10;17.50;102297.00;;;;5040807;28;20413;-71
2022/04/30 04:29:48;;;;;;;2.45;1.38;;;18.30;43.10;17.50;102298.00;;;;5018971;28;20042;-71
2022/04/30 04:32:34;;;;;;;1.90;1.33;;;18.40;43.00;17.50;102295.00;;;;5036485;28;20038;-71
2022/04/30 04:35:21;;;;;;;1.00;0.82;;;18.40;43.10;17.50;102303.00;;;;5036089;28;20063;-71
2022/04/30 04:38:07;;;;;;;1.27;1.13;;;18.40;43.10;17.50;102297.00;;;;5027738;28;20041;-71
2022/04/30 04:40:53;;;;;;;1.70;1.25;;;18.30;43.10;17.50;102295.00;;;;5035768;28;20562;-71
2022/04/30 04:43:39;;;;;;;1.98;1.08;;;18.40;43.00;17.50;102296.00;;;;5035222;28;20044;-71
2022/04/30 04:46:25;;;;;;;2.17;1.17;;;18.40;43.10;17.50;102293.00;;;;5033526;28;20040;-71
2022/04/30 04:49:11;;;;;;;1.63;1.30;;;18.30;43.00;17.50;102308.00;;;;5023736;28;20052;-71
2022/04/30 04:51:57;;;;;;;1.52;1.15;;;18.40;43.00;17.50;102299.00;;;;5029418;28;20096;-70
2022/04/30 04:54:43;;;;;;;2.72;1.50;;;18.30;43.00;17.50;102307.00;;;;5024852;28;20044;-71
2022/04/30 04:57:29;;;;;;;1.30;1.20;;;18.30;43.00;17.50;102306.00;;;;5034520;28;20047;-70
2022/04/30 05:00:16;;;;;;;1.60;1.13;;;18.20;42.90;17.50;102315.00;;;;5035857;28;20045;-71
2022/04/30 05:03:02;;;;;;;2.10;1.50;;;18.30;43.00;17.50;102319.00;;;;5024566;28;20049;-71
2022/04/30 05:05:48;;;;;;;1.50;1.27;;;18.40;43.00;17.50;102323.00;;;;5024614;28;20041;-70
2022/04/30 05:08:34;;;;;;;3.03;1.35;;;18.30;42.90;17.50;102316.00;;;;5040185;28;20040;-71
2022/04/30 05:11:20;;;;;;;1.48;1.38;;;18.30;43.00;17.50;102320.00;;;;5031730;28;20064;-71
2022/04/30 05:14:06;;;;;;;2.17;1.23;;;18.30;42.90;17.50;102311.00;;;;5033421;28;20045;-71
2022/04/30 05:16:52;;;;;;;2.63;2.15;;;18.30;42.90;17.50;102328.00;;;;5039237;28;20496;-71
2022/04/30 05:19:38;;;;;;;2.75;1.25;;;18.30;42.90;17.50;102318.00;;;;5034745;28;20038;-71
2022/04/30 05:22:24;;;;;;;1.75;1.40;;;18.30;42.90;17.50;102318.00;;;;5041021;28;20493;-71
2022/04/30 05:25:13;;;;;;;2.75;1.33;;;18.30;42.90;17.50;102322.00;;;;5041608;28;20041;-71
2022/04/30 05:27:59;;;;;;;2.67;1.40;;;18.20;42.90;17.40;102329.00;;;;5038824;28;20141;-70
2022/04/30 05:30:45;;;;;;;2.40;1.35;;;18.20;42.80;17.50;102328.00;;;;5039627;28;20479;-71
2022/04/30 05:33:35;;;;;;;1.50;1.20;;;18.40;43.00;17.40;102317.00;;;;5038424;28;20045;-71
2022/04/30 05:36:21;;;;;;;1.85;1.38;;;18.20;42.90;17.40;102323.00;;;;5039963;28;20098;-71
2022/04/30 05:39:07;;;;;;;2.20;1.48;;;18.30;43.00;17.40;102323.00;;;;5041308;28;20033;-70
2022/04/30 05:41:53;;;;;;;2.25;1.50;;;18.30;43.00;17.40;102318.00;;;;5040141;28;20041;-70
2022/04/30 05:44:39;;;;;;;2.03;1.27;;;18.20;42.90;17.40;102320.00;;;;5038787;28;20116;-70
2022/04/30 05:47:25;;;;;;;2.67;1.70;;;18.30;43.00;17.40;102317.00;;;;5038051;28;20040;-70
2022/04/30 05:50:11;;;;;;;2.15;1.95;;;18.30;43.00;17.40;102321.00;;;;5039572;28;20041;-71
2022/04/30 05:52:57;;;;;;;2.25;1.60;;;18.30;43.00;17.40;102313.00;;;;5039438;28;20041;-70
2022/04/30 05:55:43;;;;;;;2.35;1.70;;;18.30;43.00;17.40;102319.00;;;;5035928;28;20087;-71
2022/04/30 05:58:29;;;;;;;2.67;1.60;;;18.30;42.90;17.40;102325.00;;;;5042491;28;20508;-70
2022/04/30 06:01:15;;;;;;;2.17;1.75;;;18.20;42.90;17.40;102326.00;;;;5039988;28;20067;-71
2022/04/30 06:04:02;;;;;;;2.65;1.77;;;18.30;43.00;17.40;102326.00;;;;5039222;28;20045;-70
2022/04/30 06:06:48;;;;;;;2.53;1.85;;;18.30;43.00;17.40;102332.00;;;;5035637;28;20052;-71
2022/04/30 06:09:34;;;;;;;2.47;1.83;;;18.50;43.00;17.50;102332.00;;;;5036248;28;20044;-71
2022/04/30 06:12:23;;;;;;;2.80;1.85;;;18.20;42.80;17.50;102337.00;;;;5041777;28;20052;-70
2022/04/30 06:15:09;;;;;;;2.67;1.73;;;18.30;43.00;17.50;102333.00;;;;5038821;28;20076;-71
2022/04/30 06:17:55;;;;;;;1.80;1.70;;;18.30;43.00;17.40;102334.00;;;;5032488;28;20030;-70
2022/04/30 06:20:41;;;;;;;2.38;2.15;;;18.30;43.00;17.50;102342.00;;;;5037559;28;20527;-70
2022/04/30 06:23:29;;;;;;;2.50;2.00;;;18.30;43.00;17.50;102342.00;;;;5020881;28;20406;-70
2022/04/30 06:26:15;;;;;;;3.35;1.95;;;18.30;42.90;17.50;102331.00;;;;5035059;28;20288;-70
2022/04/30 06:29:02;;;;;;;3.80;2.10;;;18.20;42.90;17.50;102327.00;;;;5039458;28;20052;-70
2022/04/30 06:31:51;;;;;;;3.00;2.10;;;18.30;42.90;17.50;102330.00;;;;5025999;28;20139;-71
2022/04/30 06:34:39;;;;;;;3.33;2.10;;;18.30;42.90;17.50;102332.00;;;;5037423;28;20041;-71
2022/04/30 06:37:25;;;;;;;2.50;2.03;;;18.30;43.00;17.50;102335.00;;;;5038314;28;20475;-70
2022/04/30 06:40:12;;;;;;;3.28;2.58;;;18.40;42.90;17.50;102338.00;;;;5018878;28;20045;-71
2022/04/30 06:42:59;;;;;;;2.60;2.33;;;18.40;42.90;17.50;102335.00;;;;5044156;28;20508;-71
2022/04/30 06:45:45;;;;;;;2.87;2.00;;;18.40;42.90;17.50;102331.00;;;;5016452;28;20052;-71
2022/04/30 06:48:31;;;;;;;3.13;1.90;;;18.40;43.00;17.50;102340.00;;;;5037007;28;20091;-71
2022/04/30 06:51:17;;;;;;;2.35;1.95;;;18.40;43.00;17.50;102329.00;;;;5037450;28;20045;-71
2022/04/30 06:57:08;;;;;;;3.95;2.45;;;18.40;43.00;17.50;102336.00;;;;5042005;28;20056;-70
2022/04/30 06:59:56;;;;;;;4.13;2.35;;;18.40;43.00;17.60;102333.00;;;;5041046;28;20087;-70
2022/04/30 07:02:42;;;;;;;5.40;2.08;;;18.50;43.00;17.60;102329.00;;;;5039819;28;20037;-71
2022/04/30 07:05:28;;;;;;;4.05;2.47;;;18.50;43.10;17.60;102342.00;;;;5021796;28;20040;-71
2022/04/30 07:08:14;;;;;;;3.17;2.50;;;18.50;43.10;17.60;102332.00;;;;5040754;28;20127;-71
2022/04/30 07:11:00;;;;;;;3.33;2.13;;;18.50;43.10;17.60;102336.00;;;;5032664;28;20510;-70
2022/04/30 07:13:47;;;;;;;3.08;2.15;;;18.40;43.00;17.60;102333.00;;;;5027857;28;20116;-70
2022/04/30 07:16:33;;;;;;;4.63;2.40;;;18.50;43.10;17.60;102334.00;;;;5035529;28;20041;-70
2022/04/30 07:19:19;;;;;;;3.17;2.25;;;18.50;43.10;17.60;102336.00;;;;5041572;28;20041;-70
2022/04/30 07:22:07;;;;;;;3.35;2.30;;;18.50;43.20;17.60;102331.00;;;;5040277;28;20037;-70
2022/04/30 07:24:55;;;;;;;6.07;2.17;;;18.50;43.10;17.60;102330.00;;;;5042845;28;20047;-71
2022/04/30 07:27:41;;;;;;;2.88;2.15;;;18.50;43.20;17.60;102326.00;;;;5044936;28;20467;-70
2022/04/30 07:30:27;;;;;;;7.13;2.30;;;18.60;43.20;17.60;102329.00;;;;5038291;28;20044;-71
2022/04/30 07:33:13;;;;;;;3.05;1.98;;;18.60;43.20;17.70;102330.00;;;;5046751;28;20643;-70
2022/04/30 07:35:59;;;;;;;2.63;2.22;;;18.60;43.10;17.70;102329.00;;;;5039780;28;20044;-71
2022/04/30 07:38:45;;;;;;;3.22;2.03;;;18.60;43.10;17.70;102333.00;;;;5037891;28;20029;-71
2022/04/30 07:41:31;;;;;;;4.55;2.22;;;18.60;43.20;17.70;102331.00;;;;5022758;28;20052;-70
2022/04/30 07:44:17;;;;;;;2.88;1.92;;;18.60;43.20;17.70;102336.00;;;;5037516;28;20048;-70
2022/04/30 07:47:04;;;;;;;5.07;2.30;;;18.60;43.10;17.70;102327.00;;;;5042657;28;20036;-70
2022/04/30 07:49:50;;;;;;;2.88;2.25;;;18.60;43.00;17.70;102321.00;;;;5023478;28;20136;-70
2022/04/30 07:52:36;;;;;;;2.63;1.90;;;18.60;43.10;17.70;102331.00;;;;5036398;28;20034;-70
2022/04/30 07:55:23;;;;;;;2.65;2.00;;;18.70;43.10;17.70;102322.00;;;;5039188;28;20071;-70
2022/04/30 07:58:09;;;;;;;4.03;1.90;;;18.60;43.10;17.70;102321.00;;;;5038297;28;20029;-70
2022/04/30 08:00:55;;;;;;;3.60;2.00;;;18.60;43.10;17.70;102310.00;;;;5022047;28;20036;-70
2022/04/30 08:03:41;;;;;;;6.63;2.65;;;18.60;43.20;17.70;102310.00;;;;5026936;28;20114;-70
2022/04/30 08:06:27;;;;;;;8.95;2.78;;;18.60;43.10;17.70;102311.00;;;;5039887;28;20120;-69
2022/04/30 08:09:13;;;;;;;4.13;2.30;;;18.60;43.20;17.70;102310.00;;;;5042219;28;20453;-69
2022/04/30 08:11:59;;;;;;;4.43;2.50;;;18.70;43.20;17.70;102318.00;;;;5041210;28;20488;-69
2022/04/30 08:14:47;;;;;;;4.80;2.58;;;18.70;43.30;17.70;102313.00;;;;5038500;28;20033;-69
2022/04/30 08:17:33;;;;;;;5.35;2.58;;;18.70;43.20;17.80;102319.00;;;;5034435;28;20047;-68
2022/04/30 08:20:20;;;;;;;5.10;2.30;;;18.70;43.20;17.80;102316.00;;;;5020167;28;20107;-74
2022/04/30 08:23:06;;;;;;;2.75;1.95;;;18.70;43.20;17.80;102310.00;;;;5026566;28;20040;-71
2022/04/30 08:25:52;;;;;;;5.07;2.03;;;18.70;43.10;17.80;102301.00;;;;5042179;28;20398;-71
2022/04/30 08:28:38;;;;;;;5.68;2.22;;;18.70;43.00;17.80;102306.00;;;;5039221;28;20045;-71
2022/04/30 08:31:24;;;;;;;5.60;2.22;;;18.70;43.00;17.80;102309.00;;;;5039523;28;20418;-70
2022/04/30 08:34:11;;;;;;;6.03;2.85;;;18.80;43.00;17.90;102305.00;;;;5034141;28;20685;-77
2022/04/30 08:36:57;;;;;;;3.95;1.80;;;18.80;42.90;17.90;102301.00;;;;5039216;28;20037;-70
2022/04/30 08:39:44;;;;;;;4.50;1.85;;;18.70;42.80;17.90;102306.00;;;;5037346;28;20037;-70
2022/04/30 08:42:30;;;;;;;6.53;2.28;;;18.80;42.80;17.90;102297.00;;;;5039122;28;20045;-69
2022/04/30 08:45:16;;;;;;;2.10;1.88;;;18.80;42.80;17.90;102296.00;;;;5022061;28;20041;-69
2022/04/30 08:48:05;;;;;;;3.42;2.00;;;18.80;42.80;17.90;102300.00;;;;5020234;28;20110;-70
2022/04/30 08:50:51;;;;;;;5.55;1.80;;;18.90;42.70;17.90;102301.00;;;;5010651;28;20487;-71
2022/04/30 08:53:37;;;;;;;2.58;1.67;;;18.80;42.60;17.90;102296.00;;;;5037229;28;20040;-70
2022/04/30 08:56:23;;;;;;;3.08;1.73;;;18.90;42.60;17.90;102294.00;;;;5016327;28;20392;-70
2022/04/30 08:59:09;;;;;;;5.65;2.22;;;18.90;42.60;17.90;102299.00;;;;5040816;28;20734;-70
2022/04/30 09:01:58;;;;;;;3.42;1.67;;;18.90;42.50;17.90;102294.00;;;;5042772;28;20036;-70
2022/04/30 09:04:46;;;;;;;2.83;1.50;;;18.90;42.50;17.90;102295.00;;;;5042872;28;20075;-70
2022/04/30 09:07:33;;;;;;;7.22;2.40;;;18.90;42.40;17.90;102296.00;;;;5025760;28;20053;-70
2022/04/30 09:10:30;;;;;;;4.30;1.70;;;18.90;42.40;17.90;102296.00;;;;5025953;28;20114;-70
2022/04/30 09:13:17;;;;;;;2.58;1.70;;;18.90;42.40;17.90;102295.00;;;;5037905;28;20121;-70
2022/04/30 09:16:04;;;;;;;4.13;1.87;;;19.00;42.80;17.90;102299.00;;;;5041690;28;20119;-69
2022/04/30 09:18:52;;;;;;;2.42;1.85;;;18.90;42.30;18.00;102288.00;;;;5032695;28;20039;-69
2022/04/30 09:21:48;;;;;;;3.45;1.52;;;18.90;42.20;18.00;102288.00;;;;5013199;28;20052;-69
2022/04/30 09:24:57;;;;;;;4.10;1.35;;;19.00;42.20;17.90;102289.00;;;;5039660;28;20041;-69
2022/04/30 09:27:45;;;;;;;1.80;1.40;;;19.00;42.30;17.90;102283.00;;;;5007620;28;20056;-69
2022/04/30 09:30:32;;;;;;;5.28;1.38;;;19.00;42.20;18.00;102282.00;;;;5033945;28;20041;-69
2022/04/30 09:33:19;;;;;;;2.60;1.40;;;18.90;42.10;18.00;102279.00;;;;5024900;28;20414;-69
2022/04/30 09:39:15;;;;;;;3.42;1.40;;;18.90;41.90;18.00;102261.00;;;;5019200;28;20052;-69
2022/04/30 09:42:02;;;;;;;3.47;1.40;;;18.90;41.90;18.00;102267.00;;;;5039178;28;20080;-69
2022/04/30 09:44:48;;;;;;;2.10;1.48;;;18.90;41.80;18.00;102265.00;;;;5026513;28;20296;-69
2022/04/30 09:47:34;;;;;;;3.88;1.50;;;19.00;41.90;18.00;102258.00;;;;5005739;28;20044;-69
2022/04/30 09:56:40;;;;;;;2.63;1.42;;;19.00;41.80;18.00;102251.00;;;;5024810;28;20041;-68
2022/04/30 09:59:27;;;;;;;3.15;1.25;;;19.00;41.70;18.00;102246.00;;;;5016382;28;20549;-68
2022/04/30 10:02:14;;;;;;;3.83;1.25;;;19.00;41.70;18.00;102243.00;;;;5025915;28;20045;-68
2022/04/30 10:05:00;;;;;;;4.88;1.63;;;19.00;41.60;18.00;102237.00;;;;5028921;28;20067;-68
2022/04/30 10:07:46;;;;;;;2.30;1.50;;;19.00;41.70;18.00;102234.00;;;;5007570;28;20380;-68
2022/04/30 10:10:42;;;;;;;4.90;1.20;;;19.00;41.50;18.00;102240.00;;;;5027727;28;20106;-68
2022/04/30 10:13:40;;;;;;;1.58;0.95;;;19.00;41.50;18.00;102236.00;;;;5005199;28;20044;-68
2022/04/30 10:16:28;;;;;;;5.50;1.20;;;19.00;41.50;18.00;102235.00;;;;5019074;28;20042;-68
2022/04/30 10:19:20;;;;;;;1.17;1.08;;;18.90;41.40;18.00;102233.00;;;;5021291;28;20041;-68
2022/04/30 10:22:14;;;;;;;2.00;1.30;;;19.00;41.40;18.10;102227.00;;;;5037804;28;20068;-68
2022/04/30 10:25:00;;;;;;;2.53;1.45;;;19.00;41.30;18.10;102223.00;;;;5031804;28;20483;-68
2022/04/30 10:27:47;;;;;;;1.40;0.90;;;19.10;41.40;18.10;102222.00;;;;5041546;28;20036;-68
2022/04/30 10:30:38;;;;;;;2.47;1.10;;;19.10;41.30;18.10;102232.00;;;;5027312;28;20044;-68
2022/04/30 10:33:25;;;;;;;1.95;1.27;;;19.10;41.30;18.10;102218.00;;;;5039160;28;20507;-68
2022/04/30 10:36:12;;;;;;;2.05;1.52;;;19.10;41.20;18.10;102210.00;;;;5036719;28;20573;-68
2022/04/30 10:39:04;;;;;;;1.42;1.02;;;19.10;41.20;18.10;102217.00;;;;5027928;28;20041;-68
2022/04/30 10:41:53;;;;;;;1.52;1.20;;;19.10;41.10;18.10;102216.00;;;;5034140;28;20049;-68
2022/04/30 10:44:40;;;;;;;1.90;1.25;;;19.10;41.00;18.10;102207.00;;;;5028800;28;20060;-68
2022/04/30 10:47:26;;;;;;;3.87;1.30;;;19.20;41.00;18.10;102208.00;;;;5027497;28;20065;-68
2022/04/30 10:50:12;;;;;;;1.42;0.90;;;19.20;41.00;18.10;102205.00;;;;5038339;28;20438;-68
2022/04/30 10:52:58;;;;;;;1.85;1.08;;;19.20;41.00;18.10;102208.00;;;;5039636;28;20037;-68
2022/04/30 10:55:44;;;;;;;3.17;0.90;;;19.30;41.10;18.10;102204.00;;;;5009607;28;20368;-68
2022/04/30 10:58:32;;;;;;;1.92;0.93;;;19.20;41.00;18.20;102207.00;;;;5035489;28;20041;-68
2022/04/30 11:01:19;;;;;;;1.98;0.80;;;19.20;40.90;18.20;102202.00;;;;5037728;28;20577;-68
2022/04/30 11:04:05;;;;;;;2.40;0.90;;;19.20;40.90;18.20;102195.00;;;;5045460;28;20402;-68
2022/04/30 11:06:53;;;;;;;1.08;0.93;;;19.20;40.90;18.20;102205.00;;;;5041378;28;20046;-68
2022/04/30 11:09:43;;;;;;;1.75;0.88;;;19.20;40.90;18.20;102204.00;;;;5034239;28;20041;-69
2022/04/30 11:12:30;;;;;;;2.22;1.02;;;19.20;40.80;18.20;102197.00;;;;5035262;28;20047;-68
2022/04/30 11:15:16;;;;;;;1.08;0.90;;;19.20;40.90;18.20;102184.00;;;;5036136;28;20048;-68
2022/04/30 11:18:03;;;;;;;1.80;1.10;;;19.20;40.90;18.20;102191.00;;;;5025310;28;20036;-68
2022/04/30 11:20:49;;;;;;;2.35;0.90;;;19.20;40.90;18.20;102191.00;;;;5041374;28;20037;-68
2022/04/30 11:23:35;;;;;;;2.70;0.95;;;19.30;40.90;18.20;102188.00;;;;5041785;28;20041;-69
2022/04/30 11:26:21;;;;;;;3.60;0.90;;;19.30;40.80;18.20;102186.00;;;;5037418;28;20048;-68
2022/04/30 11:29:13;;;;;;;2.00;1.02;;;19.20;40.70;18.20;102186.00;;;;5039101;28;20041;-68
2022/04/30 11:31:59;;;;;;;1.10;0.80;;;19.20;40.60;18.20;102180.00;;;;5036440;28;20124;-68
2022/04/30 11:34:45;;;;;;;0.90;0.90;;;19.20;40.60;18.20;102178.00;;;;5022847;28;20112;-68
2022/04/30 11:37:42;;;;;;;4.43;1.30;;;19.30;40.60;18.20;102170.00;;;;5037175;28;20044;-68
2022/04/30 11:40:29;;;;;;;1.60;1.00;;;19.20;40.50;18.20;102167.00;;;;5031887;28;20115;-68
2022/04/30 11:43:15;;;;;;;2.13;0.85;;;19.30;40.60;18.20;102164.00;;;;5037035;28;20135;-68
2022/04/30 11:46:01;;;;;;;1.25;0.80;;;19.30;40.50;18.20;102165.00;;;;5025786;28;20038;-68
2022/04/30 11:48:47;;;;;;;2.20;0.90;;;19.30;40.50;18.30;102158.00;;;;5016401;28;20041;-68
2022/04/30 11:51:33;;;;;;;1.40;0.77;;;19.30;40.50;18.30;102156.00;;;;5023514;28;20033;-68
2022/04/30 11:54:22;;;;;;;0.73;0.60;;;19.30;40.50;18.30;102160.00;;;;5005486;28;20774;-68
2022/04/30 11:57:08;;;;;;;0.70;0.60;;;19.40;40.50;18.30;102154.00;;;;5026367;28;20120;-68
2022/04/30 11:59:55;;;;;;;1.17;0.68;;;19.30;40.40;18.30;102151.00;;;;5040831;28;20041;-68
2022/04/30 12:02:42;;;;;;;0.93;0.75;;;19.40;40.30;18.30;102145.00;;;;5029346;28;20038;-68
2022/04/30 12:05:31;;;;;;;0.90;0.70;;;19.30;40.20;18.30;102139.00;;;;5032663;28;20045;-68
2022/04/30 12:08:17;;;;;;;1.02;0.70;;;19.40;40.20;18.30;102142.00;;;;5037707;28;20466;-68
2022/04/30 12:11:04;;;;;;;0.40;0.40;;;19.40;40.20;18.30;102146.00;;;;5031590;28;20045;-68
2022/04/30 12:14:03;;;;;;;1.25;0.77;;;19.40;40.20;18.30;102134.00;;;;5033220;28;20482;-70
2022/04/30 12:16:49;;;;;;;0.70;0.70;;;19.40;40.00;18.30;102134.00;;;;5013668;28;20132;-70
2022/04/30 12:25:44;;;;;;;1.08;0.50;;;19.40;39.90;18.30;102121.00;;;;5039926;28;20044;-70
2022/04/30 12:28:45;;;;;;;3.08;0.73;;;19.40;39.90;18.30;102118.00;;;;5039179;28;20102;-70
2022/04/30 12:31:31;;;;;;;2.33;0.88;;;19.40;39.90;18.40;102117.00;;;;5010839;28;20087;-70
2022/04/30 12:34:27;;;;;;;1.00;0.70;;;19.60;40.00;18.30;102129.00;;;;5037501;28;20045;-70
2022/04/30 12:37:13;;;;;;;0.50;0.50;;;19.50;39.70;18.40;102119.00;;;;5025226;28;20051;-70
2022/04/30 12:40:01;;;;;;;0.50;0.50;;;19.50;39.80;18.40;102129.00;;;;5033314;28;20048;-70
2022/04/30 12:42:47;;;;;;;1.23;0.80;;;19.60;39.80;18.40;102116.00;;;;5033756;28;20041;-70
2022/04/30 12:45:33;;;;;;;2.05;0.98;;;19.50;39.70;18.40;102116.00;;;;5033616;28;20104;-70
2022/04/30 12:48:19;;;;;;;0.63;0.50;;;19.50;39.60;18.40;102105.00;;;;5035218;28;20745;-70
2022/04/30 12:51:06;;;;;;;1.00;0.65;;;19.50;39.60;18.40;102107.00;;;;5041278;28;20051;-70
2022/04/30 12:53:52;;;;;;;1.55;0.60;;;19.40;39.60;18.40;102109.00;;;;5031362;28;20402;-70